Terminal Aerodrome Forecast
Issued by NWS

Home | Current Version | Previous Version | Text Only | Print | Product List | Glossary On
Versions: 1 2 3 4 5 6 7 8 9 10 11 12 13 14
115
FTUS44 KTSA 221140
TAFFYV
TAF
KFYV 221140Z 2212/2312 VRB04KT P6SM VCSH SCT015 OVC050
      TEMPO 2212/2216 4SM -RA BR OVC008
     FM221800 32005KT P6SM SCT005 OVC012
     FM222000 34008KT P6SM OVC020
     FM230500 35005KT P6SM BKN030=

USA.gov is the U.S. government's official web portal to all federal, state and local government web resources and services.